Time;durP1;ratioP1;P1;durP2;ratioP2;P2;SDS_P1;SDS_P2;PMS_P1;PMS_P2;Temp;Humidity;BMP_temperature;BMP_pressure;BME280_temperature;BME280_humidity;BME280_pressure;Samples;Min_cycle;Max_cycle;Signal;HPM_P1;HPM_P2
2021/06/24 00:00:52;;;;;;;2.42;0.95;;;;;;;21.53;43.26;102370.38;4843594;29;20066;-91
2021/06/24 00:03:17;;;;;;;1.70;1.13;;;;;;;21.53;43.36;102365.13;4843535;29;20511;-90
2021/06/24 00:05:43;;;;;;;1.80;1.13;;;;;;;21.52;43.26;102366.03;4843556;29;20042;-93
2021/06/24 00:08:10;;;;;;;1.90;1.17;;;;;;;21.53;43.33;102359.03;4828727;29;20121;-91
2021/06/24 00:10:38;;;;;;;1.52;1.10;;;;;;;21.52;43.23;102359.91;4828555;29;20038;-91
2021/06/24 00:13:04;;;;;;;2.15;1.02;;;;;;;21.53;43.04;102374.75;4843501;29;20033;-89
2021/06/24 00:15:30;;;;;;;3.30;1.40;;;;;;;21.51;43.15;102360.78;4828104;29;20034;-90
2021/06/24 00:17:56;;;;;;;1.58;0.82;;;;;;;21.51;43.31;102364.28;4843654;29;20030;-90
2021/06/24 00:20:21;;;;;;;1.67;1.10;;;;;;;21.52;43.17;102363.41;4843512;29;20037;-89
2021/06/24 00:22:47;;;;;;;1.20;1.10;;;;;;;21.53;43.01;102364.28;4828877;29;20057;-91
2021/06/24 00:25:13;;;;;;;1.25;0.90;;;;;;;21.51;43.34;102359.06;4842738;29;20030;-90
2021/06/24 00:27:38;;;;;;;1.20;1.00;;;;;;;21.51;43.32;102356.44;4843345;29;20083;-89
2021/06/24 00:30:05;;;;;;;1.55;1.08;;;;;;;21.51;43.25;102359.06;4843261;29;20489;-90
2021/06/24 00:32:32;;;;;;;2.05;1.30;;;;;;;21.50;43.28;102352.06;4843073;29;20029;-89
2021/06/24 00:35:00;;;;;;;1.42;1.00;;;;;;;21.50;43.29;102348.56;4828149;29;20076;-89
2021/06/24 00:37:26;;;;;;;2.35;1.00;;;;;;;21.50;43.38;102349.44;4813609;29;20026;-89
2021/06/24 00:39:51;;;;;;;1.20;1.00;;;;;;;21.51;43.43;102352.94;4844200;29;20554;-90
2021/06/24 00:42:18;;;;;;;1.48;0.98;;;;;;;21.52;43.17;102358.16;4842999;29;20067;-90
2021/06/24 00:44:43;;;;;;;1.13;1.00;;;;;;;21.50;43.24;102356.44;4828092;29;20026;-90
2021/06/24 00:47:09;;;;;;;1.33;0.90;;;;;;;21.50;43.32;102344.19;4843440;29;20413;-91
2021/06/24 00:49:34;;;;;;;1.80;1.00;;;;;;;21.51;43.65;102348.59;4844717;29;20038;-88
2021/06/24 00:52:00;;;;;;;1.70;1.10;;;;;;;21.52;43.21;102346.81;4847598;29;20045;-88
2021/06/24 00:54:25;;;;;;;2.45;1.00;;;;;;;21.52;43.35;102347.69;4832272;29;20041;-87
2021/06/24 00:56:51;;;;;;;1.17;0.93;;;;;;;21.51;43.38;102355.53;4856126;29;20030;-90
2021/06/24 00:59:18;;;;;;;2.78;1.10;;;;;;;21.52;43.37;102354.69;4852290;29;20054;-88
2021/06/24 01:01:44;;;;;;;1.48;1.05;;;;;;;21.48;43.22;102345.09;4844161;29;20038;-90
2021/06/24 01:04:09;;;;;;;2.17;1.05;;;;;;;21.48;43.34;102334.59;4828687;29;20065;-92
2021/06/24 01:06:35;;;;;;;1.52;1.05;;;;;;;21.48;43.40;102337.22;4827619;29;20482;-91
2021/06/24 01:09:00;;;;;;;1.25;0.88;;;;;;;21.46;43.38;102329.38;4827241;29;20030;-92
2021/06/24 01:11:26;;;;;;;1.10;1.00;;;;;;;21.47;43.33;102331.13;4842711;29;20026;-92
2021/06/24 01:13:53;;;;;;;1.70;0.95;;;;;;;21.48;43.29;102342.47;4842438;29;20030;-92
2021/06/24 01:16:18;;;;;;;1.20;0.82;;;;;;;21.47;43.38;102338.97;4842875;29;20030;-91
2021/06/24 01:18:44;;;;;;;1.48;1.02;;;;;;;21.48;43.41;102334.59;4842767;29;20030;-93
2021/06/24 01:21:09;;;;;;;1.98;1.10;;;;;;;21.50;43.39;102343.34;4842293;29;20026;-93
2021/06/24 01:23:40;;;;;;;1.48;0.95;;;;;;;21.48;43.54;102339.84;4827343;29;20034;-92
2021/06/24 01:26:07;;;;;;;1.30;1.00;;;;;;;21.48;43.39;102348.56;4841761;29;20414;-93
2021/06/24 01:28:32;;;;;;;2.03;1.10;;;;;;;21.48;43.60;102348.56;4841654;29;20046;-92
2021/06/24 01:30:58;;;;;;;1.85;1.00;;;;;;;21.46;43.42;102342.47;4827826;29;20541;-94
2021/06/24 01:33:24;;;;;;;1.75;0.88;;;;;;;21.46;43.26;102346.84;4842077;29;20490;-93
2021/06/24 01:35:59;;;;;;;2.55;1.00;;;;;;;21.47;43.32;102345.94;4842099;29;20034;-93
2021/06/24 01:38:28;;;;;;;1.67;0.90;;;;;;;21.47;43.44;102349.47;4842454;29;20026;-91
2021/06/24 01:40:54;;;;;;;2.28;1.00;;;;;;;21.46;43.48;102347.69;4843671;29;20033;-91
2021/06/24 01:43:20;;;;;;;1.25;1.00;;;;;;;21.47;43.30;102359.94;4842499;29;20058;-91
2021/06/24 01:45:47;;;;;;;1.30;1.00;;;;;;;21.46;43.60;102352.06;4827291;29;20183;-93
2021/06/24 01:48:13;;;;;;;4.57;1.02;;;;;;;21.46;43.45;102347.69;4842149;29;20394;-93
2021/06/24 01:50:39;;;;;;;1.58;1.10;;;;;;;21.46;43.75;102350.31;4843654;29;20029;-92
2021/06/24 01:53:04;;;;;;;1.42;0.90;;;;;;;21.46;43.41;102344.22;4842052;29;20065;-93
2021/06/24 01:55:35;;;;;;;0.95;0.70;;;;;;;21.44;43.14;102341.59;4842184;29;20363;-93
2021/06/24 01:58:03;;;;;;;1.88;0.95;;;;;;;21.46;43.54;102331.13;4842673;29;20034;-92
2021/06/24 02:00:29;;;;;;;2.58;0.88;;;;;;;21.45;43.48;102335.50;4843867;29;20104;-93
2021/06/24 02:02:55;;;;;;;2.17;1.05;;;;;;;21.46;43.56;102339.84;4843028;29;20022;-93
2021/06/24 02:05:21;;;;;;;1.00;0.80;;;;;;;21.45;43.52;102329.34;4829033;29;20041;-93
2021/06/24 02:07:46;;;;;;;1.10;0.80;;;;;;;21.44;43.71;102328.50;4843249;29;20026;-93
2021/06/24 02:10:13;;;;;;;1.02;0.80;;;;;;;21.47;43.48;102338.97;4842522;29;20515;-93
2021/06/24 02:12:39;;;;;;;1.60;0.93;;;;;;;21.46;43.26;102331.13;4844019;29;20494;-92
2021/06/24 02:15:06;;;;;;;1.27;0.90;;;;;;;21.46;43.60;102331.13;4844266;29;20057;-92
2021/06/24 02:17:32;;;;;;;1.48;1.00;;;;;;;21.44;43.51;102328.50;4842831;29;20036;-94
2021/06/24 02:19:57;;;;;;;1.13;0.90;;;;;;;21.45;43.58;102326.75;4843209;29;20030;-92
2021/06/24 02:22:23;;;;;;;2.42;0.88;;;;;;;21.46;43.59;102337.22;4827229;29;20041;-92
2021/06/24 02:24:49;;;;;;;1.02;0.73;;;;;;;21.46;43.45;102337.22;4826914;29;20038;-93
2021/06/24 02:27:14;;;;;;;2.03;1.00;;;;;;;21.43;43.68;102337.25;4826564;29;20408;-93
2021/06/24 02:29:42;;;;;;;1.65;1.10;;;;;;;21.45;43.57;102334.59;4826472;29;20030;-92
2021/06/24 02:32:08;;;;;;;1.23;0.90;;;;;;;21.42;43.67;102325.00;4842215;29;20494;-91
2021/06/24 02:34:35;;;;;;;1.83;1.00;;;;;;;21.44;43.80;102318.03;4842229;29;20044;-91
2021/06/24 02:37:01;;;;;;;1.80;0.90;;;;;;;21.44;43.49;102319.78;4842125;29;20076;-92
2021/06/24 02:39:29;;;;;;;1.15;1.00;;;;;;;21.43;43.59;102316.28;4843239;29;20435;-91
2021/06/24 02:41:54;;;;;;;0.93;0.80;;;;;;;21.43;43.64;102313.66;4845738;29;20034;-92
2021/06/24 02:44:20;;;;;;;2.00;0.73;;;;;;;21.41;43.74;102307.56;4848250;29;20033;-92
2021/06/24 02:46:45;;;;;;;1.13;1.00;;;;;;;21.41;43.74;102311.91;4848882;29;20045;-91
2021/06/24 02:49:12;;;;;;;1.13;0.73;;;;;;;21.41;43.74;102307.56;4848753;29;20032;-92
2021/06/24 02:51:37;;;;;;;1.20;0.98;;;;;;;21.39;43.55;102297.94;4846261;29;20497;-91
2021/06/24 02:54:03;;;;;;;1.00;0.88;;;;;;;21.42;43.84;102298.81;4846818;29;20045;-94
2021/06/24 02:56:34;;;;;;;1.55;0.90;;;;;;;21.39;43.52;102288.31;4846655;29;20030;-91
2021/06/24 02:59:00;;;;;;;1.50;0.70;;;;;;;21.41;43.78;102291.84;4845367;29;20026;-88
2021/06/24 03:01:25;;;;;;;1.20;0.77;;;;;;;21.41;43.51;102281.38;4830571;29;20094;-90
2021/06/24 03:03:50;;;;;;;1.10;0.77;;;;;;;21.41;43.40;102281.38;4830486;29;20057;-91
2021/06/24 03:06:16;;;;;;;1.00;0.82;;;;;;;21.41;43.65;102289.22;4830128;29;20038;-89
2021/06/24 03:08:41;;;;;;;1.02;0.70;;;;;;;21.42;43.62;102296.19;4846950;29;20040;-89
2021/06/24 03:11:07;;;;;;;2.08;0.80;;;;;;;21.42;43.55;102297.94;4831451;29;20102;-88
2021/06/24 03:13:32;;;;;;;2.15;0.93;;;;;;;21.41;43.53;102296.19;4833403;29;20042;-90
2021/06/24 03:15:58;;;;;;;1.13;0.75;;;;;;;21.39;43.57;102303.19;4855978;29;20041;-90
2021/06/24 03:18:23;;;;;;;1.10;0.90;;;;;;;21.40;43.71;102313.63;4858633;29;20014;-89
2021/06/24 03:20:48;;;;;;;1.90;0.90;;;;;;;21.37;43.80;102311.88;4845051;29;20038;-90
2021/06/24 03:23:14;;;;;;;1.23;0.80;;;;;;;21.38;43.53;102312.75;4836234;29;20060;-92
2021/06/24 03:25:39;;;;;;;1.30;0.88;;;;;;;21.37;43.51;102317.13;4849782;29;20386;-90
2021/06/24 03:28:05;;;;;;;1.67;0.80;;;;;;;21.39;43.42;102308.41;4849812;29;20530;-91
2021/06/24 03:30:30;;;;;;;1.65;1.00;;;;;;;21.36;43.76;102294.44;4832622;29;20030;-90
2021/06/24 03:32:56;;;;;;;1.20;0.80;;;;;;;21.36;43.67;102288.31;4830978;29;20034;-91
2021/06/24 03:35:21;;;;;;;1.67;1.00;;;;;;;21.37;43.53;102297.94;4846432;29;20489;-92
2021/06/24 03:37:47;;;;;;;1.75;0.93;;;;;;;21.36;43.69;102306.66;4845968;29;20513;-90
2021/06/24 03:40:16;;;;;;;1.10;0.70;;;;;;;21.36;43.47;102306.66;4847243;29;20057;-90
2021/06/24 03:42:41;;;;;;;1.17;0.90;;;;;;;21.39;43.60;102304.03;4819050;29;20026;-90
2021/06/24 03:45:08;;;;;;;1.85;0.80;;;;;;;21.36;43.44;102304.94;4845174;29;20087;-91
2021/06/24 03:47:34;;;;;;;2.45;1.02;;;;;;;21.38;43.83;102297.03;4843930;29;20025;-91
2021/06/24 03:49:59;;;;;;;2.35;0.90;;;;;;;21.35;43.52;102297.94;4828905;29;20090;-92
2021/06/24 03:52:24;;;;;;;0.88;0.70;;;;;;;21.38;43.58;102297.03;4843329;29;20029;-93
2021/06/24 03:54:50;;;;;;;1.73;0.75;;;;;;;21.37;43.58;102306.66;4828429;29;20042;-90
2021/06/24 03:57:15;;;;;;;1.15;0.80;;;;;;;21.37;43.73;102308.41;4844013;29;20038;-89
2021/06/24 03:59:41;;;;;;;1.25;0.75;;;;;;;21.37;43.57;102305.78;4828227;29;20486;-92
2021/06/24 04:02:06;;;;;;;0.90;0.70;;;;;;;21.38;43.68;102310.13;4843974;29;20034;-89
2021/06/24 04:04:32;;;;;;;2.17;0.65;;;;;;;21.35;43.64;102303.16;4844874;29;20034;-93
2021/06/24 04:06:57;;;;;;;1.15;0.70;;;;;;;21.37;43.69;102296.19;4843586;29;20124;-90
2021/06/24 04:09:22;;;;;;;1.23;0.68;;;;;;;21.37;43.71;102293.56;4828120;29;20447;-90
2021/06/24 04:11:48;;;;;;;0.90;0.80;;;;;;;21.36;43.51;102297.06;4843507;29;20037;-93
2021/06/24 04:14:13;;;;;;;1.30;0.70;;;;;;;21.37;43.42;102296.19;4843168;29;20097;-90
2021/06/24 04:16:39;;;;;;;0.93;0.60;;;;;;;21.39;43.74;102297.94;4845355;29;20545;-90
2021/06/24 04:19:04;;;;;;;1.73;0.82;;;;;;;21.38;43.82;102294.44;4843061;29;20030;-92
2021/06/24 04:21:30;;;;;;;1.02;0.85;;;;;;;21.37;43.73;102296.19;4843238;29;20026;-89
2021/06/24 04:23:55;;;;;;;0.90;0.77;;;;;;;21.37;43.68;102288.31;4828030;29;20045;-92
2021/06/24 04:26:22;;;;;;;1.02;0.70;;;;;;;21.39;43.78;102293.56;4827837;29;20054;-91
2021/06/24 04:28:48;;;;;;;2.70;0.80;;;;;;;21.40;43.67;102290.06;4843138;29;20029;-92
2021/06/24 04:31:13;;;;;;;1.27;0.70;;;;;;;21.42;43.73;102295.34;4844235;29;20470;-92
2021/06/24 04:33:38;;;;;;;1.45;0.95;;;;;;;21.42;43.84;102297.94;4843109;29;20596;-91
2021/06/24 04:36:04;;;;;;;1.20;0.80;;;;;;;21.41;44.10;102297.09;4843040;29;20125;-90
2021/06/24 04:38:29;;;;;;;4.25;0.90;;;;;;;21.44;43.73;102296.19;4827962;29;20030;-90
2021/06/24 04:40:55;;;;;;;1.80;0.82;;;;;;;21.43;43.57;102294.47;4828806;29;20045;-92
2021/06/24 04:43:20;;;;;;;1.58;0.70;;;;;;;21.43;43.78;102290.09;4843944;29;20030;-89
2021/06/24 04:45:46;;;;;;;1.45;0.70;;;;;;;21.44;43.85;102290.97;4843312;29;20037;-93
2021/06/24 04:48:11;;;;;;;1.02;0.88;;;;;;;21.47;43.74;102293.56;4843191;29;20240;-92
2021/06/24 04:50:36;;;;;;;1.20;0.70;;;;;;;21.44;43.50;102283.97;4827466;29;20033;-91
2021/06/24 04:53:03;;;;;;;0.75;0.70;;;;;;;21.46;43.52;102297.06;4842592;29;20091;-92
2021/06/24 04:55:38;;;;;;;2.20;1.13;;;;;;;21.47;43.62;102277.84;4842656;29;20041;-93
2021/06/24 04:58:07;;;;;;;2.13;0.90;;;;;;;21.51;43.27;102277.88;4844221;29;20044;-91
2021/06/24 05:02:57;;;;;;;0.82;0.63;;;;;;;21.53;43.58;102273.47;4868147;23;20057;-92
2021/06/24 05:05:23;;;;;;;2.63;0.95;;;;;;;21.55;43.53;102271.72;4846103;29;20041;-92
2021/06/24 05:07:49;;;;;;;2.55;0.90;;;;;;;21.59;43.52;102276.97;4845948;29;20480;-91
2021/06/24 05:10:14;;;;;;;3.10;1.10;;;;;;;21.62;43.35;102272.56;4830596;29;20044;-90
2021/06/24 05:12:40;;;;;;;3.45;1.60;;;;;;;21.64;43.38;102270.81;4845874;29;20457;-91
2021/06/24 05:15:06;;;;;;;5.25;1.90;;;;;;;21.64;43.53;102278.66;4861414;29;20044;-90
2021/06/24 05:17:31;;;;;;;8.23;1.90;;;;;;;21.59;43.83;102276.97;4861551;29;20081;-91
2021/06/24 05:19:58;;;;;;;5.25;1.83;;;;;;;21.36;43.13;102277.84;4861902;29;20025;-91
2021/06/24 05:22:24;;;;;;;3.88;1.75;;;;;;;21.20;42.65;102279.63;4845588;29;20041;-91
2021/06/24 05:24:50;;;;;;;5.78;2.05;;;;;;;21.12;42.51;102274.44;4845472;29;20481;-90
2021/06/24 05:27:15;;;;;;;9.45;1.70;;;;;;;21.04;42.32;102278.78;4845239;29;20081;-90
2021/06/24 05:29:41;;;;;;;5.88;1.80;;;;;;;21.02;42.15;102271.81;4845904;29;20032;-91
2021/06/24 05:32:06;;;;;;;6.03;1.63;;;;;;;20.86;42.09;102269.22;4862458;29;20474;-90
2021/06/24 05:34:32;;;;;;;4.72;1.42;;;;;;;20.90;41.91;102273.56;4861340;29;20033;-91
2021/06/24 05:37:00;;;;;;;3.47;1.40;;;;;;;20.86;41.43;102274.47;4849589;29;20048;-91
2021/06/24 05:39:26;;;;;;;5.68;1.80;;;;;;;20.74;41.56;102277.94;4866354;29;20066;-90
2021/06/24 05:41:56;;;;;;;4.90;1.50;;;;;;;20.65;41.94;102272.69;4871719;29;20030;-90
2021/06/24 05:44:21;;;;;;;4.28;1.60;;;;;;;20.63;41.71;102274.44;4878704;29;20058;-89
2021/06/24 05:46:47;;;;;;;5.72;1.70;;;;;;;20.67;41.65;102268.34;4849046;29;20473;-89
2021/06/24 05:49:12;;;;;;;5.05;1.40;;;;;;;20.80;41.26;102270.97;4849316;29;20041;-90
2021/06/24 05:51:38;;;;;;;4.43;1.40;;;;;;;20.93;41.45;102262.25;4866013;29;20458;-90
2021/06/24 05:54:03;;;;;;;7.93;1.73;;;;;;;21.01;41.27;102260.47;4862250;29;20044;-91
2021/06/24 05:56:30;;;;;;;5.20;1.40;;;;;;;21.13;41.23;102252.59;4864080;29;20040;-91
2021/06/24 05:58:56;;;;;;;4.00;1.40;;;;;;;21.26;41.17;102255.19;4863148;29;20037;-89
2021/06/24 06:01:22;;;;;;;4.82;1.70;;;;;;;21.31;40.86;102250.81;4862712;29;20053;-90
2021/06/24 06:03:48;;;;;;;6.95;1.75;;;;;;;21.40;40.95;102250.78;4849019;29;20041;-88
2021/06/24 06:06:13;;;;;;;4.90;1.20;;;;;;;21.44;40.66;102247.31;4864175;29;20072;-91
2021/06/24 06:08:38;;;;;;;4.30;1.40;;;;;;;21.46;40.94;102252.56;4835872;29;20029;-89
2021/06/24 06:15:10;;;;;;;5.15;1.73;;;;;;;21.52;41.05;102247.28;4867023;29;20044;-91
2021/06/24 06:25:07;;;;;;;4.03;1.60;;;;;;;21.51;40.91;102246.44;4837409;29;20562;-91
2021/06/24 06:31:11;;;;;;;3.65;1.20;;;;;;;21.59;41.00;102241.16;4845869;29;20056;-90
2021/06/24 06:38:05;;;;;;;4.00;1.38;;;;;;;21.62;40.97;102238.50;4844821;29;20065;-91
2021/06/24 06:44:37;;;;;;;;;;;;;;;;;;;;;
2021/06/24 06:48:19;;;;;;;3.58;1.40;;;;;;;21.64;40.94;102226.28;4812847;29;20047;-90
2021/06/24 07:15:13;;;;;;;6.63;1.80;;;;;;;20.43;41.22;102248.25;4815869;29;20115;-95
2021/06/24 07:24:26;;;;;;;9.00;1.83;;;;;;;20.22;40.83;102243.00;4864711;29;20181;-94
2021/06/24 07:26:56;;;;;;;10.15;2.20;;;;;;;20.21;40.60;102238.63;4862395;29;20369;-94
2021/06/24 07:29:22;;;;;;;5.22;2.13;;;;;;;20.11;40.91;102242.97;4833258;29;20033;-95
2021/06/24 07:31:47;;;;;;;6.60;2.33;;;;;;;19.98;40.96;102234.22;4863286;29;20105;-93
2021/06/24 07:34:13;;;;;;;9.10;2.80;;;;;;;20.02;40.78;102238.59;4863164;29;20034;-94
2021/06/24 07:37:06;;;;;;;5.03;2.30;;;;;;;20.07;40.63;102239.47;4869217;29;20038;-95
2021/06/24 07:39:45;;;;;;;7.55;2.70;;;;;;;20.13;40.65;102241.22;4872963;29;20060;-96
2021/06/24 07:42:12;;;;;;;10.25;2.88;;;;;;;20.17;40.30;102242.13;4879182;29;20046;-92
2021/06/24 07:44:47;;;;;;;9.02;2.75;;;;;;;20.14;40.56;102243.84;4866447;29;20185;-92
2021/06/24 07:47:13;;;;;;;5.20;2.47;;;;;;;20.15;40.06;102239.50;4863582;29;20021;-92
2021/06/24 07:49:39;;;;;;;8.38;3.00;;;;;;;20.08;40.45;102240.34;4847350;29;20042;-91
2021/06/24 08:05:49;;;;;;;9.27;2.53;;;;;;;20.20;40.13;102244.72;4830210;29;20410;-91
2021/06/24 08:08:14;;;;;;;8.77;2.58;;;;;;;20.27;40.12;102239.53;4795408;29;20088;-91
2021/06/24 08:10:40;;;;;;;8.85;2.25;;;;;;;20.49;39.81;102243.03;4799026;29;20061;-92
2021/06/24 08:13:05;;;;;;;5.45;2.10;;;;;;;20.47;39.93;102238.66;4861981;29;20030;-92
2021/06/24 08:15:30;;;;;;;6.15;2.13;;;;;;;20.24;40.14;102241.25;4846474;29;20041;-92
2021/06/24 08:17:56;;;;;;;5.53;2.47;;;;;;;20.08;40.54;102237.75;4862133;29;20033;-91
2021/06/24 08:20:27;;;;;;;8.35;3.05;;;;;;;20.02;40.63;102242.94;4846844;29;20033;-93
2021/06/24 08:22:56;;;;;;;8.48;3.50;;;;;;;20.01;40.66;102243.81;4846933;29;20042;-94
2021/06/24 08:25:21;;;;;;;7.00;2.78;;;;;;;19.94;40.82;102235.94;4864197;29;20026;-95
2021/06/24 08:27:49;;;;;;;6.97;2.50;;;;;;;19.87;40.89;102218.50;4847912;29;20037;-95
2021/06/24 08:30:15;;;;;;;5.57;2.38;;;;;;;20.02;40.67;102225.53;4847027;29;20050;-94
2021/06/24 08:32:40;;;;;;;6.32;2.35;;;;;;;20.07;40.72;102223.78;4862679;29;20041;-92
2021/06/24 08:35:09;;;;;;;8.60;2.60;;;;;;;20.00;40.66;102221.16;4862097;29;20097;-90
2021/06/24 08:37:35;;;;;;;7.28;2.40;;;;;;;20.13;40.32;102220.31;4861631;29;20041;-90
2021/06/24 08:40:01;;;;;;;8.15;2.75;;;;;;;20.11;40.25;102227.28;4862669;29;20035;-94
2021/06/24 08:42:27;;;;;;;6.38;2.65;;;;;;;20.07;40.05;102223.78;4862759;29;20030;-91
2021/06/24 08:45:07;;;;;;;7.13;2.20;;;;;;;20.17;39.71;102221.22;4846397;29;20128;-90
2021/06/24 08:47:32;;;;;;;6.03;2.20;;;;;;;20.37;39.57;102218.63;4862236;29;20040;-91
2021/06/24 08:50:00;;;;;;;6.22;2.25;;;;;;;20.52;39.49;102221.22;4868172;29;20037;-92
2021/06/24 08:52:26;;;;;;;8.93;2.40;;;;;;;20.44;39.81;102229.06;4873735;29;20025;-91
2021/06/24 08:54:55;;;;;;;5.38;2.20;;;;;;;20.28;39.78;102222.09;4862441;29;20053;-92
2021/06/24 08:57:21;;;;;;;7.05;2.22;;;;;;;20.21;40.08;102225.53;4869720;29;20056;-94
2021/06/24 08:59:46;;;;;;;6.03;2.47;;;;;;;20.19;40.17;102228.19;4865012;29;20029;-92
2021/06/24 09:02:14;;;;;;;5.93;2.20;;;;;;;20.21;39.97;102230.78;4850685;29;20042;-92
2021/06/24 09:04:45;;;;;;;4.75;2.53;;;;;;;20.22;40.08;102237.75;4864856;29;20056;-93
2021/06/24 09:07:13;;;;;;;5.22;2.10;;;;;;;20.13;40.07;102233.38;4863290;29;20069;-92
2021/06/24 09:09:57;;;;;;;5.80;2.08;;;;;;;20.14;40.01;102235.13;4866313;29;20037;-92
2021/06/24 09:12:25;;;;;;;8.10;2.30;;;;;;;20.09;40.19;102235.13;4847609;29;20061;-93
2021/06/24 09:14:59;;;;;;;3.28;1.60;;;;;;;20.12;40.21;102239.47;4861960;29;20038;-93
2021/06/24 09:17:38;;;;;;;4.07;1.77;;;;;;;20.23;39.86;102245.63;4862093;29;20045;-94
2021/06/24 09:20:26;;;;;;;4.63;1.70;;;;;;;20.19;40.25;102245.59;4848602;29;20033;-92
2021/06/24 09:23:19;;;;;;;6.43;2.13;;;;;;;20.21;40.05;102241.22;4863936;29;20040;-92
2021/06/24 09:25:49;;;;;;;4.13;1.63;;;;;;;20.11;40.24;102233.38;4864295;29;20025;-92
2021/06/24 09:28:14;;;;;;;4.80;1.50;;;;;;;20.20;39.98;102234.28;4862136;29;20529;-93
2021/06/24 09:30:42;;;;;;;4.75;1.83;;;;;;;20.22;40.24;102240.38;4861544;29;20029;-93
2021/06/24 09:33:16;;;;;;;10.13;2.10;;;;;;;20.24;40.14;102238.63;4861236;29;20075;-93
2021/06/24 09:38:43;;;;;;;4.10;1.92;;;;;;;20.26;40.23;102240.38;4886578;23;20482;-93
2021/06/24 09:41:15;;;;;;;7.25;1.85;;;;;;;20.23;40.13;102237.78;4831281;29;20057;-92
2021/06/24 09:43:42;;;;;;;5.35;1.80;;;;;;;20.20;40.25;102242.13;4879016;24;20196;-93
2021/06/24 09:46:17;;;;;;;4.18;1.88;;;;;;;20.20;39.95;102242.97;4828677;29;20042;-93
2021/06/24 09:52:05;;;;;;;4.82;1.80;;;;;;;20.18;40.30;102239.47;4848070;29;20049;-93
2021/06/24 09:54:51;;;;;;;5.78;1.85;;;;;;;20.16;40.43;102236.00;4831853;29;20036;-93
2021/06/24 09:58:05;;;;;;;5.68;1.75;;;;;;;20.12;40.45;102240.38;4833210;29;20034;-93
2021/06/24 10:11:05;;;;;;;6.60;3.47;;;;;;;20.21;40.60;102241.22;4812865;29;20077;-93
2021/06/24 10:17:17;;;;;;;4.60;2.33;;;;;;;20.28;40.39;102240.38;4813905;29;20212;-92
2021/06/24 10:19:45;;;;;;;5.28;2.30;;;;;;;20.27;40.46;102244.75;4849344;29;20049;-94
2021/06/24 10:28:50;;;;;;;6.25;2.30;;;;;;;20.28;40.38;102233.41;4849262;29;20145;-93
2021/06/24 10:32:03;;;;;;;4.75;2.00;;;;;;;20.30;40.03;102230.81;4846868;29;20030;-93
2021/06/24 10:45:02;;;;;;;5.53;2.45;;;;;;;20.47;40.13;102234.31;4861956;24;20625;-92
2021/06/24 10:47:35;;;;;;;4.18;2.38;;;;;;;20.50;40.28;102231.69;4863717;29;20064;-91
2021/06/24 10:53:22;;;;;;;6.38;1.92;;;;;;;20.54;40.50;102224.72;4865116;29;20149;-93
2021/06/24 10:55:51;;;;;;;3.88;1.58;;;;;;;20.49;40.41;102221.22;4863436;29;20054;-92
2021/06/24 10:58:27;;;;;;;5.18;1.80;;;;;;;20.49;40.22;102222.13;4862980;29;20169;-91
2021/06/24 11:01:03;;;;;;;3.55;1.65;;;;;;;20.43;40.17;102223.84;4863301;29;20029;-92
2021/06/24 11:03:43;;;;;;;4.55;1.77;;;;;;;20.52;40.03;102216.00;4863371;29;20029;-91
2021/06/24 11:06:10;;;;;;;6.43;1.77;;;;;;;20.57;39.98;102213.38;4863011;29;20041;-92
2021/06/24 11:08:41;;;;;;;4.20;1.58;;;;;;;20.53;39.90;102213.41;4863184;29;20509;-91
2021/06/24 11:11:15;;;;;;;3.70;1.60;;;;;;;20.49;39.73;102208.13;4863532;29;20073;-92
2021/06/24 11:13:41;;;;;;;;;;;;;;;20.48;39.90;102204.66;4864072;29;20522;-91
2021/06/24 11:16:07;;;;;;;3.78;1.60;;;;;;;20.52;39.57;102210.78;4863189;29;19936;-92
2021/06/24 11:22:33;;;;;;;4.03;1.45;;;;;;;20.60;39.90;102209.06;4864671;29;20117;-91
2021/06/24 11:25:08;;;;;;;4.70;1.75;;;;;;;20.62;40.02;102196.88;4862182;29;20029;-91
2021/06/24 11:31:06;;;;;;;5.68;1.70;;;;;;;20.81;39.63;102197.69;4864033;29;20059;-92
2021/06/24 11:33:34;;;;;;;7.07;1.73;;;;;;;20.83;39.52;102193.34;4847358;29;20210;-92
2021/06/24 11:36:13;;;;;;;5.45;2.30;;;;;;;20.89;39.44;102202.94;4864051;29;20466;-90
2021/06/24 11:38:49;;;;;;;8.98;2.60;;;;;;;20.89;39.97;102201.19;4862625;29;20025;-90
2021/06/24 11:41:20;;;;;;;5.90;2.00;;;;;;;20.87;40.09;102207.28;4847561;29;20153;-92
2021/06/24 11:44:03;;;;;;;7.93;2.10;;;;;;;20.91;39.91;102201.19;4862581;29;20033;-91
2021/06/24 11:46:32;;;;;;;6.93;2.17;;;;;;;20.94;40.00;102188.06;4862331;29;20101;-91
2021/06/24 12:05:11;;;;;;;5.00;1.70;;;;;;;20.94;39.91;102185.47;4863928;29;20037;-91
2021/06/24 12:07:37;;;;;;;4.30;1.67;;;;;;;20.94;39.93;102181.09;4847797;29;20525;-93
2021/06/24 12:10:10;;;;;;;6.35;1.77;;;;;;;20.93;39.89;102181.97;4846433;29;20063;-91
2021/06/24 12:12:43;;;;;;;5.88;1.90;;;;;;;20.92;40.22;102177.59;4846870;29;20401;-91
2021/06/24 12:15:10;;;;;;;6.57;1.90;;;;;;;20.94;40.35;102175.84;4861929;29;20049;-91
2021/06/24 12:17:37;;;;;;;4.38;1.65;;;;;;;20.97;40.46;102175.00;4862153;29;20438;-91
2021/06/24 12:20:08;;;;;;;4.88;1.50;;;;;;;21.00;40.52;102174.97;4862809;29;20501;-90
2021/06/24 12:22:40;;;;;;;7.78;1.77;;;;;;;21.01;40.32;102176.72;4869912;29;20034;-91
2021/06/24 12:25:22;;;;;;;6.85;1.90;;;;;;;21.02;40.39;102175.00;4876933;29;20071;-92
2021/06/24 12:27:59;;;;;;;6.07;1.95;;;;;;;21.11;40.15;102173.19;4878057;29;20030;-91
2021/06/24 12:30:35;;;;;;;5.57;1.90;;;;;;;21.13;40.14;102163.59;4864433;29;20026;-90
2021/06/24 12:33:04;;;;;;;3.80;1.63;;;;;;;21.13;40.07;102168.84;4862480;29;20053;-91
2021/06/24 12:35:34;;;;;;;6.43;2.10;;;;;;;21.09;39.96;102163.63;4862250;29;20116;-92
2021/06/24 12:44:52;;;;;;;3.78;1.80;;;;;;;21.14;39.52;102165.34;4805773;29;20146;-90
2021/06/24 12:47:41;;;;;;;5.15;1.63;;;;;;;21.21;39.91;102163.59;4790609;29;20043;-91
2021/06/24 12:50:43;;;;;;;6.53;1.60;;;;;;;21.25;39.78;102156.56;4808035;29;20027;-91
2021/06/24 13:00:00;;;;;;;4.53;1.77;;;;;;;21.29;39.93;102153.06;4805274;29;20080;-91
2021/06/24 13:03:11;;;;;;;4.78;1.73;;;;;;;21.32;39.83;102148.69;4790611;29;20042;-91
2021/06/24 13:09:34;;;;;;;4.85;1.70;;;;;;;21.40;39.88;102146.03;4862970;29;20413;-91
2021/06/24 13:12:10;;;;;;;6.47;1.45;;;;;;;21.40;39.92;102145.16;4861323;29;20124;-91
2021/06/24 13:24:50;;;;;;;5.40;1.58;;;;;;;21.35;40.03;102143.44;4823160;29;20430;-93
2021/06/24 13:27:36;;;;;;;6.57;1.92;;;;;;;21.43;39.83;102150.44;4826060;29;20075;-91
2021/06/24 13:30:43;;;;;;;3.15;1.50;;;;;;;21.37;39.95;102146.91;4842060;29;20040;-92
2021/06/24 13:33:11;;;;;;;4.50;1.70;;;;;;;21.38;39.93;102139.94;4810487;29;20204;-91
2021/06/24 13:35:37;;;;;;;4.57;1.50;;;;;;;21.42;39.83;102146.06;4808328;29;20179;-92
2021/06/24 13:38:09;;;;;;;3.75;1.60;;;;;;;;;;4829320;29;20071;-93
2021/06/24 13:40:52;;;;;;;4.68;1.30;;;;;;;21.44;40.00;102145.16;4823469;29;20489;-92
2021/06/24 13:43:18;;;;;;;;;;;;;;;21.46;39.89;102148.66;4808991;29;20490;-93
2021/06/24 13:45:45;;;;;;;6.00;1.50;;;;;;;21.47;39.81;102147.78;4861065;29;19920;-90
2021/06/24 13:48:13;;;;;;;2.63;1.15;;;;;;;21.46;40.33;102156.50;4860705;29;20395;-92
2021/06/24 13:50:39;;;;;;;4.93;1.60;;;;;;;21.44;39.81;102146.94;4845624;29;20033;-93
2021/06/24 13:53:19;;;;;;;4.80;1.40;;;;;;;21.45;39.78;102149.56;4845706;29;20044;-94
2021/06/24 13:55:46;;;;;;;3.92;1.48;;;;;;;21.46;39.96;102153.91;4860859;29;20033;-92
2021/06/24 13:58:12;;;;;;;4.03;1.33;;;;;;;;;;4861228;29;20053;-92
2021/06/24 14:00:39;;;;;;;2.90;1.33;;;;;;;21.51;39.86;102146.00;4861750;29;20033;-91
2021/06/24 14:03:05;;;;;;;4.65;1.42;;;;;;;21.48;39.96;102146.91;4860932;29;20033;-93
2021/06/24 14:05:35;;;;;;;3.72;1.40;;;;;;;21.50;39.97;102145.16;4861427;29;20041;-91
2021/06/24 14:08:03;;;;;;;4.93;1.63;;;;;;;21.46;40.06;102150.41;4861400;29;20040;-92
2021/06/24 14:10:29;;;;;;;4.22;1.40;;;;;;;21.47;40.08;102144.28;4862934;29;20124;-93
2021/06/24 14:12:55;;;;;;;4.68;1.48;;;;;;;21.48;40.05;102146.91;4861827;29;20069;-93
2021/06/24 14:15:21;;;;;;;5.55;2.70;;;;;;;21.42;39.95;102139.06;4863433;29;20040;-92
2021/06/24 14:17:47;;;;;;;4.68;2.10;;;;;;;21.44;39.57;102142.56;4867351;29;20030;-94
2021/06/24 14:20:14;;;;;;;5.00;2.13;;;;;;;21.44;39.97;102141.69;4864483;29;20120;-93